createdAt,value
2023-06-19T00:01:01.291Z,1015.81
2023-06-19T00:01:13.008Z,1015.61
2023-06-19T00:01:43.080Z,1015.71
2023-06-19T00:02:14.530Z,1015.71
2023-06-19T00:02:44.434Z,1015.81
2023-06-19T00:03:14.995Z,1015.81
2023-06-19T00:03:45.876Z,1015.51
2023-06-19T00:04:29.598Z,1015.51
2023-06-19T00:04:48.374Z,1015.61
2023-06-19T00:05:20.105Z,1015.61
2023-06-19T00:06:07.707Z,1015.61
2023-06-19T00:06:22.366Z,1015.61
2023-06-19T00:06:53.422Z,1015.61
2023-06-19T00:07:23.881Z,1015.61
2023-06-19T00:07:54.625Z,1015.61
2023-06-19T00:08:26.045Z,1015.61
2023-06-19T00:12:31.168Z,1015.51
2023-06-19T00:17:39.744Z,1015.41
2023-06-19T00:17:58.991Z,1015.31
2023-06-19T00:18:28.112Z,1015.31
2023-06-19T00:18:48.583Z,1015.51
2023-06-19T00:19:49.327Z,1015.51
2023-06-19T00:20:19.803Z,1015.31
2023-06-19T00:20:49.852Z,1015.41
2023-06-19T00:21:20.635Z,1015.41
2023-06-19T00:21:51.570Z,1015.61
2023-06-19T00:22:22.796Z,1015.61
2023-06-19T00:22:56.189Z,1015.31
2023-06-19T00:23:25.651Z,1015.31
2023-06-19T00:23:59.335Z,1015.41
2023-06-19T00:24:27.335Z,1015.41
2023-06-19T00:24:58.071Z,1015.31
2023-06-19T00:25:28.884Z,1015.31
2023-06-19T00:25:59.658Z,1015.41
2023-06-19T00:26:30.607Z,1015.41
2023-06-19T00:27:01.729Z,1015.31
2023-06-19T00:27:32.705Z,1015.31
2023-06-19T00:28:04.049Z,1015.31
2023-06-19T00:28:35.529Z,1015.31
2023-06-19T00:29:06.719Z,1015.41
2023-06-19T00:29:37.636Z,1015.41
2023-06-19T00:30:11.007Z,1015.10
2023-06-19T00:30:40.410Z,1015.10
2023-06-19T00:31:11.383Z,1015.20
2023-06-19T00:31:41.339Z,1015.20
2023-06-19T00:32:12.268Z,1015.31
2023-06-19T00:33:00.474Z,1015.31
2023-06-19T00:33:14.106Z,1015.31
2023-06-19T00:33:45.344Z,1015.31
2023-06-19T00:34:17.426Z,1015.31
2023-06-19T00:34:47.697Z,1015.00
2023-06-19T00:35:18.905Z,1015.00
2023-06-19T00:35:51.961Z,1015.20
2023-06-19T00:37:06.277Z,1015.20
2023-06-19T00:37:22.217Z,1015.41
2023-06-19T00:37:52.201Z,1015.20
2023-06-19T00:38:23.494Z,1015.20
2023-06-19T00:38:55.503Z,1015.00
2023-06-19T00:39:26.908Z,1015.00
2023-06-19T00:39:58.561Z,1015.10
2023-06-19T00:40:29.436Z,1015.10
2023-06-19T00:41:00.046Z,1015.41
2023-06-19T00:41:31.501Z,1015.41
2023-06-19T00:42:01.485Z,1015.20
2023-06-19T00:42:31.852Z,1015.20
2023-06-19T00:43:02.444Z,1015.20
2023-06-19T00:43:34.315Z,1015.20
2023-06-19T00:44:05.847Z,1015.10
2023-06-19T00:44:37.410Z,1015.10
2023-06-19T00:45:09.950Z,1015.00
2023-06-19T00:45:39.273Z,1015.00
2023-06-19T00:46:09.687Z,1015.20
2023-06-19T00:46:39.962Z,1015.20
2023-06-19T00:47:41.895Z,1015.10
2023-06-19T00:48:12.500Z,1015.10
2023-06-19T00:48:43.074Z,1015.20
2023-06-19T00:49:15.329Z,1015.20
2023-06-19T00:49:47.176Z,1015.31
2023-06-19T00:50:17.766Z,1015.31
2023-06-19T00:50:48.238Z,1015.20
2023-06-19T00:51:19.658Z,1015.20
2023-06-19T00:51:51.871Z,1015.10
2023-06-19T00:52:27.317Z,1015.10
2023-06-19T00:52:51.464Z,1015.20
2023-06-19T00:53:22.168Z,1015.20
2023-06-19T00:53:55.632Z,1015.20
2023-06-19T00:54:25.151Z,1015.20
2023-06-19T00:54:56.926Z,1015.20
2023-06-19T00:55:28.296Z,1015.20
2023-06-19T00:55:58.988Z,1015.10
2023-06-19T00:56:28.684Z,1015.10
2023-06-19T00:57:08.257Z,1015.31
2023-06-19T00:57:30.404Z,1015.31
2023-06-19T00:58:02.154Z,1015.00
2023-06-19T00:58:32.031Z,1015.00
2023-06-19T00:59:03.450Z,1015.00
2023-06-19T00:59:35.366Z,1015.00
2023-06-19T01:00:07.287Z,1015.10
2023-06-19T01:00:38.049Z,1015.10
2023-06-19T01:01:22.535Z,1015.00
2023-06-19T01:01:39.803Z,1015.00
2023-06-19T01:02:11.078Z,1015.20
2023-06-19T01:02:41.028Z,1015.20
2023-06-19T01:03:12.261Z,1015.00
2023-06-19T01:03:42.368Z,1014.80
2023-06-19T01:04:13.507Z,1014.80
2023-06-19T01:04:44.597Z,1015.00
2023-06-19T01:05:17.295Z,1015.00
2023-06-19T01:05:47.676Z,1015.10
2023-06-19T01:06:18.960Z,1015.10
2023-06-19T01:06:50.167Z,1015.00
2023-06-19T01:07:19.715Z,1015.00
2023-06-19T01:07:50.413Z,1014.80
2023-06-19T01:08:21.571Z,1014.80
2023-06-19T01:08:52.429Z,1015.00
2023-06-19T01:09:24.314Z,1015.00
2023-06-19T01:09:55.973Z,1015.00
2023-06-19T01:10:27.643Z,1015.00
2023-06-19T01:10:58.335Z,1015.00
2023-06-19T01:11:28.683Z,1015.00
2023-06-19T01:11:59.881Z,1015.00
2023-06-19T01:12:30.806Z,1015.00
2023-06-19T01:13:00.965Z,1014.80
2023-06-19T01:14:02.499Z,1014.90
2023-06-19T01:14:33.634Z,1014.90
2023-06-19T01:15:07.888Z,1014.90
2023-06-19T01:15:37.440Z,1014.90
2023-06-19T01:16:09.544Z,1014.80
2023-06-19T01:16:38.449Z,1014.80
2023-06-19T01:17:10.338Z,1014.90
2023-06-19T01:17:40.276Z,1014.90
2023-06-19T01:18:10.524Z,1015.20
2023-06-19T01:19:12.776Z,1014.90
2023-06-19T01:19:43.478Z,1014.80
2023-06-19T01:20:16.378Z,1014.80
2023-06-19T01:20:47.275Z,1014.80
2023-06-19T01:21:18.199Z,1014.80
2023-06-19T01:21:48.669Z,1014.90
2023-06-19T01:22:37.603Z,1014.90
2023-06-19T01:22:49.549Z,1014.90
2023-06-19T01:23:20.249Z,1014.90
2023-06-19T01:23:51.290Z,1015.00
2023-06-19T01:24:22.660Z,1015.00
2023-06-19T01:24:53.623Z,1014.59
2023-06-19T01:25:24.822Z,1014.59
2023-06-19T01:25:57.243Z,1014.80
2023-06-19T01:26:36.057Z,1014.80
2023-06-19T01:26:58.475Z,1014.90
2023-06-19T01:27:59.382Z,1014.80
2023-06-19T01:28:30.132Z,1014.80
2023-06-19T01:29:01.951Z,1014.80
2023-06-19T01:29:32.529Z,1014.80
2023-06-19T01:30:03.679Z,1014.80
2023-06-19T01:30:39.055Z,1014.80
2023-06-19T01:31:07.580Z,1014.70
2023-06-19T01:31:38.069Z,1014.70
2023-06-19T01:32:09.307Z,1014.70
2023-06-19T01:32:40.258Z,1014.70
2023-06-19T01:33:10.353Z,1014.70
2023-06-19T01:33:40.222Z,1014.70
2023-06-19T01:34:11.451Z,1014.80
2023-06-19T01:34:42.310Z,1014.80
2023-06-19T01:35:13.813Z,1014.80
2023-06-19T01:35:44.098Z,1014.90
2023-06-19T01:36:17.738Z,1014.90
2023-06-19T01:36:48.709Z,1014.70
2023-06-19T01:37:19.486Z,1014.70
2023-06-19T01:37:50.706Z,1014.90
2023-06-19T01:38:20.262Z,1014.90
2023-06-19T01:38:50.204Z,1014.80
2023-06-19T01:39:21.332Z,1014.80
2023-06-19T01:40:24.021Z,1014.80
2023-06-19T01:40:54.165Z,1014.90
2023-06-19T01:41:26.711Z,1014.90
2023-06-19T01:41:57.396Z,1015.10
2023-06-19T01:42:28.070Z,1015.10
2023-06-19T01:42:58.397Z,1014.80
2023-06-19T01:44:00.483Z,1014.59
2023-06-19T01:44:31.159Z,1014.59
2023-06-19T01:45:02.898Z,1014.80
2023-06-19T01:45:33.239Z,1014.80
2023-06-19T01:46:04.785Z,1014.80
2023-06-19T01:46:53.851Z,1014.80
2023-06-19T01:47:07.657Z,1014.80
2023-06-19T01:47:38.586Z,1014.80
2023-06-19T01:48:09.511Z,1014.80
2023-06-19T01:48:40.077Z,1014.80
2023-06-19T01:49:12.153Z,1014.80
2023-06-19T01:49:42.014Z,1014.80
2023-06-19T01:50:12.959Z,1014.80
2023-06-19T01:50:43.496Z,1014.80
2023-06-19T01:51:14.939Z,1014.80
2023-06-19T01:51:47.086Z,1014.80
2023-06-19T01:52:17.456Z,1014.80
2023-06-19T01:52:48.360Z,1014.80
2023-06-19T01:53:30.039Z,1014.80
2023-06-19T01:53:49.713Z,1014.49
2023-06-19T01:54:20.848Z,1014.49
2023-06-19T01:54:51.533Z,1014.59
2023-06-19T01:55:23.150Z,1014.59
2023-06-19T01:55:53.474Z,1014.70
2023-06-19T01:56:24.578Z,1014.70
2023-06-19T01:56:56.673Z,1014.90
2023-06-19T01:57:28.121Z,1014.90
2023-06-19T01:58:34.469Z,1014.90
2023-06-19T01:58:59.828Z,1014.80
2023-06-19T01:59:30.785Z,1014.80
2023-06-19T02:00:34.331Z,1014.70
2023-06-19T02:01:03.847Z,1014.80
2023-06-19T02:01:34.540Z,1014.80
2023-06-19T02:02:23.641Z,1014.70
2023-06-19T02:02:38.305Z,1014.70
2023-06-19T02:03:09.330Z,1014.80
2023-06-19T02:03:40.109Z,1014.80
2023-06-19T02:04:11.194Z,1014.90
2023-06-19T02:04:40.859Z,1014.90
2023-06-19T02:05:13.125Z,1014.70
2023-06-19T02:05:42.555Z,1014.90
2023-06-19T02:06:44.939Z,1014.90
2023-06-19T02:07:17.247Z,1014.90
2023-06-19T02:07:47.748Z,1014.80
2023-06-19T02:08:18.740Z,1014.80
2023-06-19T02:08:50.072Z,1014.90
2023-06-19T02:09:20.534Z,1014.90
2023-06-19T02:09:51.532Z,1015.00
2023-06-19T02:10:22.254Z,1015.00
2023-06-19T02:10:52.820Z,1014.59
2023-06-19T02:11:24.132Z,1014.59
2023-06-19T02:11:54.740Z,1014.80
2023-06-19T02:12:25.905Z,1014.80
2023-06-19T02:12:57.390Z,1014.70
2023-06-19T02:13:29.010Z,1014.70
2023-06-19T02:14:00.050Z,1014.80
2023-06-19T02:14:30.662Z,1014.80
2023-06-19T02:15:00.811Z,1014.80
2023-06-19T02:15:32.496Z,1014.80
2023-06-19T02:16:02.582Z,1014.59
2023-06-19T02:16:33.892Z,1014.59
2023-06-19T02:17:04.919Z,1014.70
2023-06-19T02:17:36.999Z,1014.70
2023-06-19T02:18:08.896Z,1014.59
2023-06-19T02:18:39.313Z,1014.59
2023-06-19T02:19:11.652Z,1014.70
2023-06-19T02:19:40.740Z,1014.70
2023-06-19T02:20:12.321Z,1014.70
2023-06-19T02:20:41.662Z,1014.80
2023-06-19T02:21:14.559Z,1014.80
2023-06-19T02:21:43.382Z,1014.80
2023-06-19T02:22:14.836Z,1014.80
2023-06-19T02:22:45.690Z,1014.70
2023-06-19T02:23:18.219Z,1014.70
2023-06-19T02:23:49.081Z,1014.80
2023-06-19T02:24:20.629Z,1014.80
2023-06-19T02:24:50.412Z,1014.70
2023-06-19T02:25:21.846Z,1014.70
2023-06-19T02:25:51.405Z,1014.49
2023-06-19T02:26:23.152Z,1014.49
2023-06-19T02:27:11.696Z,1014.59
2023-06-19T02:27:24.506Z,1014.59
2023-06-19T02:27:55.960Z,1014.59
2023-06-19T02:28:27.220Z,1014.59
2023-06-19T02:28:58.853Z,1014.49
2023-06-19T02:29:29.729Z,1014.49
2023-06-19T02:29:59.681Z,1014.59
2023-06-19T02:30:32.281Z,1014.59
2023-06-19T02:31:01.464Z,1014.39
2023-06-19T02:31:32.433Z,1014.39
2023-06-19T02:32:04.638Z,1014.49
2023-06-19T02:32:35.117Z,1014.49
2023-06-19T02:33:06.626Z,1014.70
2023-06-19T02:33:36.817Z,1014.70
2023-06-19T02:34:09.879Z,1014.39
2023-06-19T02:34:39.836Z,1014.39
2023-06-19T02:35:11.542Z,1014.49
2023-06-19T02:35:40.668Z,1014.49
2023-06-19T02:36:12.214Z,1014.59
2023-06-19T02:36:42.613Z,1014.39
2023-06-19T02:37:13.760Z,1014.39
2023-06-19T02:37:44.777Z,1014.49
2023-06-19T02:38:16.393Z,1014.49
2023-06-19T02:38:47.774Z,1014.39
2023-06-19T02:39:19.354Z,1014.39
2023-06-19T02:39:49.634Z,1014.49
2023-06-19T02:40:22.238Z,1014.49
2023-06-19T02:40:52.550Z,1014.49
2023-06-19T02:41:21.678Z,1014.49
2023-06-19T02:41:52.877Z,1014.59
2023-06-19T02:42:23.821Z,1014.59
2023-06-19T02:42:55.057Z,1014.59
2023-06-19T02:43:26.361Z,1014.59
2023-06-19T02:43:57.080Z,1014.39
2023-06-19T02:44:28.892Z,1014.39
2023-06-19T02:45:00.217Z,1014.59
2023-06-19T02:45:30.901Z,1014.59
2023-06-19T02:46:00.899Z,1014.49
2023-06-19T02:46:31.644Z,1014.49
2023-06-19T02:47:21.132Z,1014.59
2023-06-19T02:47:33.899Z,1014.59
2023-06-19T02:48:05.175Z,1014.59
2023-06-19T02:48:36.315Z,1014.59
2023-06-19T02:49:07.478Z,1014.70
2023-06-19T02:49:39.608Z,1014.70
2023-06-19T02:50:11.166Z,1014.59
2023-06-19T02:50:40.278Z,1014.59
2023-06-19T02:51:11.747Z,1014.59
2023-06-19T02:51:42.484Z,1014.39
2023-06-19T02:52:13.262Z,1014.39
2023-06-19T02:52:43.574Z,1014.59
2023-06-19T02:53:15.709Z,1014.59
2023-06-19T02:53:46.083Z,1014.59
2023-06-19T02:54:17.732Z,1014.59
2023-06-19T02:54:48.923Z,1014.49
2023-06-19T02:55:20.676Z,1014.49
2023-06-19T02:55:50.452Z,1014.59
2023-06-19T02:56:21.714Z,1014.59
2023-06-19T02:56:51.855Z,1014.59
2023-06-19T02:57:23.992Z,1014.59
2023-06-19T02:57:54.204Z,1014.70
2023-06-19T02:58:25.219Z,1014.70
2023-06-19T02:58:57.453Z,1014.59
2023-06-19T02:59:27.123Z,1014.59
2023-06-19T02:59:59.993Z,1014.39
2023-06-19T03:00:30.246Z,1014.39
2023-06-19T03:01:00.109Z,1014.49
2023-06-19T03:01:31.290Z,1014.49
2023-06-19T03:02:02.626Z,1014.49
2023-06-19T03:02:33.215Z,1014.49
2023-06-19T03:03:05.527Z,1014.70
2023-06-19T03:03:35.781Z,1014.70
2023-06-19T03:04:07.133Z,1014.39
2023-06-19T03:04:36.995Z,1014.39
2023-06-19T03:05:10.310Z,1014.49
2023-06-19T03:05:40.557Z,1014.49
2023-06-19T03:06:41.871Z,1014.80
2023-06-19T03:07:13.083Z,1014.80
2023-06-19T03:07:42.840Z,1014.49
2023-06-19T03:08:14.428Z,1014.49
2023-06-19T03:08:45.350Z,1014.59
2023-06-19T03:09:16.509Z,1014.59
2023-06-19T03:09:47.871Z,1014.49
2023-06-19T03:10:19.338Z,1014.49
2023-06-19T03:10:50.020Z,1014.70
2023-06-19T03:11:21.406Z,1014.70
2023-06-19T03:11:51.485Z,1014.49
2023-06-19T03:12:22.479Z,1014.49
2023-06-19T03:12:53.293Z,1014.80
2023-06-19T03:13:24.037Z,1014.80
2023-06-19T03:13:55.042Z,1014.59
2023-06-19T03:14:26.448Z,1014.59
2023-06-19T03:14:56.988Z,1014.80
2023-06-19T03:15:30.510Z,1014.80
2023-06-19T03:16:01.278Z,1015.00
2023-06-19T03:16:31.227Z,1015.00
2023-06-19T03:17:01.822Z,1014.80
2023-06-19T03:17:32.354Z,1014.80
2023-06-19T03:18:03.320Z,1014.59
2023-06-19T03:18:33.848Z,1014.59
2023-06-19T03:19:05.232Z,1014.59
2023-06-19T03:19:36.317Z,1014.59
2023-06-19T03:20:08.654Z,1014.49
2023-06-19T03:20:39.778Z,1014.49
2023-06-19T03:21:11.612Z,1014.90
2023-06-19T03:21:41.363Z,1014.90
2023-06-19T03:22:12.559Z,1014.90
2023-06-19T03:22:42.425Z,1014.80
2023-06-19T03:23:12.829Z,1014.80
2023-06-19T03:23:43.907Z,1014.70
2023-06-19T03:24:15.427Z,1014.70
2023-06-19T03:24:46.749Z,1014.90
2023-06-19T03:25:17.064Z,1014.90
2023-06-19T03:25:49.199Z,1014.70
2023-06-19T03:26:20.300Z,1014.70
2023-06-19T03:26:51.405Z,1014.59
2023-06-19T03:27:22.220Z,1014.59
2023-06-19T03:27:52.466Z,1014.59
2023-06-19T03:28:24.019Z,1014.59
2023-06-19T03:28:55.056Z,1014.70
2023-06-19T03:29:25.522Z,1014.70
2023-06-19T03:29:56.610Z,1014.49
2023-06-19T03:30:28.613Z,1014.49
2023-06-19T03:30:59.148Z,1015.00
2023-06-19T03:31:30.739Z,1015.00
2023-06-19T03:32:01.677Z,1014.80
2023-06-19T03:32:32.704Z,1014.80
2023-06-19T03:33:02.971Z,1014.59
2023-06-19T03:33:33.148Z,1014.59
2023-06-19T03:34:04.107Z,1014.59
2023-06-19T03:34:35.273Z,1014.59
2023-06-19T03:35:06.552Z,1014.70
2023-06-19T03:35:37.075Z,1014.70
2023-06-19T03:36:10.548Z,1014.90
2023-06-19T03:36:40.811Z,1014.90
2023-06-19T03:37:11.673Z,1014.70
2023-06-19T03:37:42.399Z,1014.70
2023-06-19T03:38:12.259Z,1014.80
2023-06-19T03:38:43.668Z,1014.59
2023-06-19T03:39:14.324Z,1014.59
2023-06-19T03:39:44.828Z,1014.80
2023-06-19T03:40:16.970Z,1014.80
2023-06-19T03:41:04.298Z,1014.70
2023-06-19T03:41:19.592Z,1014.70
2023-06-19T03:41:50.282Z,1014.70
2023-06-19T03:42:21.453Z,1014.70
2023-06-19T03:42:51.560Z,1014.80
2023-06-19T03:43:22.875Z,1014.80
2023-06-19T03:43:53.962Z,1014.80
2023-06-19T03:44:24.409Z,1014.80
2023-06-19T03:44:55.177Z,1014.59
2023-06-19T03:45:27.064Z,1014.59
2023-06-19T03:45:56.984Z,1014.90
2023-06-19T03:46:45.410Z,1014.70
2023-06-19T03:47:00.612Z,1014.70
2023-06-19T03:47:30.976Z,1014.70
2023-06-19T03:48:02.445Z,1014.80
2023-06-19T03:48:32.298Z,1014.80
2023-06-19T03:49:04.642Z,1014.70
2023-06-19T03:49:34.030Z,1014.70
2023-06-19T03:50:27.221Z,1014.90
2023-06-19T03:50:37.042Z,1014.90
2023-06-19T03:51:09.261Z,1014.80
2023-06-19T03:51:38.806Z,1014.80
2023-06-19T03:52:10.761Z,1014.70
2023-06-19T03:52:42.021Z,1014.70
2023-06-19T03:53:43.485Z,1014.59
2023-06-19T03:54:13.691Z,1014.59
2023-06-19T03:55:02.800Z,1014.80
2023-06-19T03:55:15.824Z,1014.80
2023-06-19T03:55:46.464Z,1014.59
2023-06-19T03:56:17.027Z,1014.59
2023-06-19T03:57:06.019Z,1014.70
2023-06-19T03:57:20.606Z,1014.70
2023-06-19T03:58:07.551Z,1014.59
2023-06-19T03:58:21.972Z,1014.59
2023-06-19T03:59:11.622Z,1014.70
2023-06-19T03:59:23.722Z,1014.70
2023-06-19T03:59:54.661Z,1014.80
2023-06-19T04:00:26.979Z,1014.80
2023-06-19T04:00:58.022Z,1014.70
2023-06-19T04:01:27.736Z,1014.70
2023-06-19T04:02:00.004Z,1014.59
2023-06-19T04:02:30.594Z,1014.59
2023-06-19T04:03:00.869Z,1014.70
2023-06-19T04:03:31.818Z,1014.70
2023-06-19T04:04:02.300Z,1014.90
2023-06-19T04:04:32.800Z,1014.90
2023-06-19T04:05:04.519Z,1014.59
2023-06-19T04:06:07.325Z,1014.59
2023-06-19T04:06:37.740Z,1014.59
2023-06-19T04:07:10.406Z,1014.80
2023-06-19T04:07:40.741Z,1014.80
2023-06-19T04:08:11.740Z,1014.80
2023-06-19T04:08:42.452Z,1014.80
2023-06-19T04:09:12.350Z,1014.80
2023-06-19T04:09:43.099Z,1014.80
2023-06-19T04:10:15.539Z,1014.80
2023-06-19T04:10:45.449Z,1014.80
2023-06-19T04:11:17.372Z,1014.80
2023-06-19T04:11:47.526Z,1014.70
2023-06-19T04:12:19.819Z,1014.70
2023-06-19T04:12:50.542Z,1014.70
2023-06-19T04:13:21.999Z,1014.70
2023-06-19T04:13:51.175Z,1014.70
2023-06-19T04:14:22.645Z,1014.70
2023-06-19T04:14:53.241Z,1014.80
2023-06-19T04:15:25.040Z,1014.80
2023-06-19T04:15:55.686Z,1014.49
2023-06-19T04:16:27.279Z,1014.49
2023-06-19T04:16:58.731Z,1014.59
2023-06-19T04:17:29.774Z,1014.59
2023-06-19T04:18:00.963Z,1014.70
2023-06-19T04:18:30.672Z,1014.70
2023-06-19T04:19:01.360Z,1014.70
2023-06-19T04:19:31.935Z,1014.70
2023-06-19T04:20:03.867Z,1014.70
2023-06-19T04:20:34.142Z,1014.70
2023-06-19T04:21:06.292Z,1014.59
2023-06-19T04:21:37.653Z,1014.59
2023-06-19T04:22:08.999Z,1014.59
2023-06-19T04:22:39.283Z,1014.59
2023-06-19T04:23:11.377Z,1014.59
2023-06-19T04:23:41.262Z,1014.59
2023-06-19T04:24:12.350Z,1014.49
2023-06-19T04:24:42.635Z,1014.59
2023-06-19T04:25:13.152Z,1014.59
2023-06-19T04:25:44.323Z,1014.70
2023-06-19T04:26:15.997Z,1014.70
2023-06-19T04:26:48.071Z,1014.70
2023-06-19T04:27:22.780Z,1014.70
2023-06-19T04:27:49.409Z,1014.59
2023-06-19T04:28:20.437Z,1014.59
2023-06-19T04:28:51.853Z,1014.29
2023-06-19T04:29:22.474Z,1014.29
2023-06-19T04:29:53.301Z,1014.49
2023-06-19T04:30:55.675Z,1014.39
2023-06-19T04:31:25.014Z,1014.39
2023-06-19T04:31:57.142Z,1014.49
2023-06-19T04:32:29.835Z,1014.49
2023-06-19T04:32:59.732Z,1014.70
2023-06-19T04:33:31.132Z,1014.70
2023-06-19T04:34:01.053Z,1014.59
2023-06-19T04:34:31.366Z,1014.59
2023-06-19T04:35:03.534Z,1014.49
2023-06-19T04:35:33.571Z,1014.49
2023-06-19T04:36:05.124Z,1014.59
2023-06-19T04:36:35.419Z,1014.59
2023-06-19T04:37:07.593Z,1014.70
2023-06-19T04:37:39.243Z,1014.70
2023-06-19T04:38:10.271Z,1014.39
2023-06-19T04:38:39.884Z,1014.39
2023-06-19T04:39:11.094Z,1014.59
2023-06-19T04:39:41.383Z,1014.49
2023-06-19T04:40:13.432Z,1014.49
2023-06-19T04:40:43.374Z,1014.49
2023-06-19T04:41:14.247Z,1014.49
2023-06-19T04:41:45.434Z,1014.59
2023-06-19T04:42:18.195Z,1014.59
2023-06-19T04:42:48.792Z,1014.49
2023-06-19T04:43:20.080Z,1014.49
2023-06-19T04:43:50.898Z,1014.59
2023-06-19T04:44:21.266Z,1014.59
2023-06-19T04:44:51.857Z,1014.59
2023-06-19T04:45:23.367Z,1014.59
2023-06-19T04:45:53.187Z,1014.59
2023-06-19T04:46:24.596Z,1014.59
2023-06-19T04:46:55.027Z,1014.59
2023-06-19T04:47:36.428Z,1014.59
2023-06-19T04:47:58.475Z,1014.70
2023-06-19T04:48:30.008Z,1014.70
2023-06-19T04:49:00.803Z,1014.59
2023-06-19T04:49:30.794Z,1014.59
2023-06-19T04:50:01.621Z,1014.59
2023-06-19T04:50:32.687Z,1014.59
2023-06-19T04:51:03.527Z,1014.80
2023-06-19T04:51:34.881Z,1014.80
2023-06-19T04:52:05.573Z,1014.59
2023-06-19T04:52:37.104Z,1014.59
2023-06-19T04:53:09.296Z,1014.70
2023-06-19T04:53:39.455Z,1014.70
2023-06-19T04:54:10.990Z,1014.70
2023-06-19T04:54:59.436Z,1014.59
2023-06-19T04:55:12.604Z,1014.59
2023-06-19T04:56:02.869Z,1014.70
2023-06-19T04:56:13.315Z,1014.70
2023-06-19T04:56:45.343Z,1014.80
2023-06-19T04:57:15.113Z,1014.80
2023-06-19T04:57:48.587Z,1014.80
2023-06-19T04:58:19.298Z,1014.80
2023-06-19T04:58:50.108Z,1014.70
2023-06-19T04:59:20.604Z,1014.70
2023-06-19T04:59:51.214Z,1014.70
2023-06-19T05:00:25.023Z,1014.70
2023-06-19T05:00:52.541Z,1014.80
2023-06-19T05:01:54.385Z,1014.80
2023-06-19T05:02:25.684Z,1014.80
2023-06-19T05:02:57.942Z,1014.59
2023-06-19T05:03:28.585Z,1014.59
2023-06-19T05:03:59.381Z,1014.80
2023-06-19T05:04:30.424Z,1014.80
2023-06-19T05:05:00.898Z,1014.80
2023-06-19T05:05:31.932Z,1014.80
2023-06-19T05:06:02.450Z,1014.59
2023-06-19T05:06:33.344Z,1014.59
2023-06-19T05:07:04.140Z,1014.80
2023-06-19T05:07:35.151Z,1014.80
2023-06-19T05:08:39.477Z,1014.70
2023-06-19T05:09:32.116Z,1014.80
2023-06-19T05:09:40.950Z,1014.80
2023-06-19T05:10:12.718Z,1014.80
2023-06-19T05:10:41.420Z,1014.80
2023-06-19T05:11:12.637Z,1014.80
2023-06-19T05:11:44.003Z,1014.90
2023-06-19T05:12:14.660Z,1014.90
2023-06-19T05:12:45.197Z,1014.70
2023-06-19T05:13:19.526Z,1014.70
2023-06-19T05:13:49.683Z,1014.80
2023-06-19T05:14:20.507Z,1014.80
2023-06-19T05:14:54.164Z,1014.90
2023-06-19T05:15:37.027Z,1014.90
2023-06-19T05:15:51.775Z,1014.80
2023-06-19T05:16:22.578Z,1014.80
2023-06-19T05:16:53.980Z,1015.00
2023-06-19T05:17:24.533Z,1015.00
2023-06-19T05:17:55.495Z,1014.90
2023-06-19T05:18:27.837Z,1014.90
2023-06-19T05:18:59.288Z,1015.10
2023-06-19T05:19:30.058Z,1015.10
2023-06-19T05:20:01.222Z,1014.80
2023-06-19T05:20:31.110Z,1014.80
2023-06-19T05:21:01.691Z,1014.80
2023-06-19T05:21:32.477Z,1014.80
2023-06-19T05:22:03.401Z,1014.90
2023-06-19T05:22:34.126Z,1014.90
2023-06-19T05:23:06.128Z,1014.90
2023-06-19T05:23:51.332Z,1014.90
2023-06-19T05:24:08.694Z,1014.90
2023-06-19T05:24:40.759Z,1014.90
2023-06-19T05:25:12.447Z,1014.80
2023-06-19T05:25:41.407Z,1014.80
2023-06-19T05:26:11.896Z,1014.80
2023-06-19T05:26:42.677Z,1014.90
2023-06-19T05:27:14.629Z,1014.90
2023-06-19T05:27:46.399Z,1015.00
2023-06-19T05:28:25.027Z,1015.00
2023-06-19T05:28:46.804Z,1015.00
2023-06-19T05:29:18.994Z,1015.00
2023-06-19T05:29:51.281Z,1014.80
2023-06-19T05:30:39.500Z,1014.80
2023-06-19T05:31:05.653Z,1014.70
2023-06-19T05:31:21.718Z,1014.70
2023-06-19T05:31:53.519Z,1014.90
2023-06-19T05:32:23.517Z,1014.90
2023-06-19T05:32:54.353Z,1014.90
2023-06-19T05:33:25.806Z,1014.90
2023-06-19T05:33:58.192Z,1014.80
2023-06-19T05:34:29.761Z,1014.80
2023-06-19T05:34:59.534Z,1014.80
2023-06-19T05:35:30.322Z,1014.80
2023-06-19T05:36:01.623Z,1014.80
2023-06-19T05:36:32.154Z,1014.80
2023-06-19T05:37:02.401Z,1014.90
2023-06-19T05:37:33.354Z,1014.90
2023-06-19T05:38:04.442Z,1014.80
2023-06-19T05:38:35.637Z,1014.80
2023-06-19T05:39:07.542Z,1014.80
2023-06-19T05:39:38.852Z,1014.80
2023-06-19T05:40:10.760Z,1014.90
2023-06-19T05:40:40.700Z,1014.90
2023-06-19T05:41:11.273Z,1014.90
2023-06-19T05:41:41.666Z,1015.00
2023-06-19T05:42:12.987Z,1015.00
2023-06-19T05:42:43.700Z,1014.70
2023-06-19T05:43:14.857Z,1014.70
2023-06-19T05:43:49.711Z,1014.80
2023-06-19T05:44:17.110Z,1014.80
2023-06-19T05:44:54.159Z,1014.90
2023-06-19T05:45:42.796Z,1014.90
2023-06-19T05:47:49.591Z,1014.80
2023-06-19T05:48:09.873Z,1015.10
2023-06-19T05:48:24.491Z,1015.10
2023-06-19T05:48:55.185Z,1015.00
2023-06-19T05:49:26.582Z,1015.00
2023-06-19T05:49:57.238Z,1015.10
2023-06-19T05:50:32.827Z,1015.10
2023-06-19T05:51:32.250Z,1014.80
2023-06-19T05:52:02.437Z,1015.00
2023-06-19T05:52:33.197Z,1015.00
2023-06-19T05:53:04.045Z,1015.20
2023-06-19T05:53:35.281Z,1015.20
2023-06-19T05:54:05.760Z,1014.90
2023-06-19T05:54:36.896Z,1014.90
2023-06-19T05:55:09.755Z,1015.10
2023-06-19T05:55:40.270Z,1015.10
2023-06-19T05:56:11.393Z,1015.31
2023-06-19T05:56:41.469Z,1015.31
2023-06-19T05:57:12.642Z,1015.00
2023-06-19T05:57:43.090Z,1015.31
2023-06-19T05:58:14.349Z,1015.31
2023-06-19T05:58:45.273Z,1015.10
2023-06-19T05:59:15.562Z,1015.10
2023-06-19T05:59:48.516Z,1015.10
2023-06-19T06:00:18.518Z,1015.10
2023-06-19T06:00:50.453Z,1015.20
2023-06-19T06:01:24.432Z,1015.20
2023-06-19T06:02:05.909Z,1015.20
2023-06-19T06:02:23.739Z,1015.20
2023-06-19T06:02:53.084Z,1015.31
2023-06-19T06:03:23.699Z,1015.31
2023-06-19T06:04:10.314Z,1015.41
2023-06-19T06:04:25.628Z,1015.41
2023-06-19T06:05:00.094Z,1015.41
2023-06-19T06:05:28.148Z,1015.41
2023-06-19T06:06:06.012Z,1015.31
2023-06-19T06:06:56.302Z,1015.31
2023-06-19T06:07:12.619Z,1015.10
2023-06-19T06:07:34.644Z,1015.10
2023-06-19T06:08:03.072Z,1015.20
2023-06-19T06:08:34.606Z,1015.20
2023-06-19T06:09:04.786Z,1015.31
2023-06-19T06:09:35.982Z,1015.31
2023-06-19T06:10:07.851Z,1015.41
2023-06-19T06:10:38.564Z,1015.41
2023-06-19T06:11:11.090Z,1015.31
2023-06-19T06:11:42.003Z,1015.31
2023-06-19T06:12:12.145Z,1015.41
2023-06-19T06:12:42.180Z,1015.41
2023-06-19T06:13:13.481Z,1015.41
2023-06-19T06:13:44.575Z,1015.31
2023-06-19T06:14:14.969Z,1015.31
2023-06-19T06:14:45.696Z,1015.41
2023-06-19T06:15:17.047Z,1015.41
2023-06-19T06:15:48.149Z,1015.41
2023-06-19T06:16:21.255Z,1015.41
2023-06-19T06:16:51.490Z,1015.31
2023-06-19T06:17:22.022Z,1015.31
2023-06-19T06:17:52.413Z,1015.61
2023-06-19T06:18:23.206Z,1015.61
2023-06-19T06:18:53.912Z,1015.41
2023-06-19T06:19:25.043Z,1015.41
2023-06-19T06:19:55.575Z,1015.20
2023-06-19T06:20:27.240Z,1015.20
2023-06-19T06:20:57.897Z,1015.61
2023-06-19T06:21:30.281Z,1015.61
2023-06-19T06:22:01.569Z,1015.41
2023-06-19T06:22:31.703Z,1015.41
2023-06-19T06:23:02.731Z,1015.61
2023-06-19T06:23:32.632Z,1015.61
2023-06-19T06:24:04.125Z,1015.41
2023-06-19T06:24:34.679Z,1015.41
2023-06-19T06:25:06.369Z,1015.51
2023-06-19T06:25:36.955Z,1015.51
2023-06-19T06:26:08.565Z,1015.41
2023-06-19T06:26:40.787Z,1015.41
2023-06-19T06:27:11.745Z,1015.41
2023-06-19T06:28:00.184Z,1015.41
2023-06-19T06:28:13.325Z,1015.41
2023-06-19T06:28:43.051Z,1015.61
2023-06-19T06:29:14.700Z,1015.61
2023-06-19T06:29:44.857Z,1015.51
2023-06-19T06:30:20.303Z,1015.51
2023-06-19T06:30:46.848Z,1015.71
2023-06-19T06:31:33.491Z,1015.71
2023-06-19T06:31:50.143Z,1015.51
2023-06-19T06:32:22.072Z,1015.51
2023-06-19T06:32:52.259Z,1015.61
2023-06-19T06:33:23.860Z,1015.61
2023-06-19T06:33:53.660Z,1015.61